sensor_id;sensor_type;location;lat;lon;timestamp;temperature;humidity
4604;DHT22;2314;48.272;11.562;2023-03-23T00:02:22;7.30;99.90
4604;DHT22;2314;48.272;11.562;2023-03-23T00:04:51;7.30;99.90
4604;DHT22;2314;48.272;11.562;2023-03-23T00:07:18;7.30;99.90
4604;DHT22;2314;48.272;11.562;2023-03-23T00:09:47;7.30;99.90
4604;DHT22;2314;48.272;11.562;2023-03-23T00:12:19;7.30;99.90
4604;DHT22;2314;48.272;11.562;2023-03-23T00:14:47;7.30;99.90
4604;DHT22;2314;48.272;11.562;2023-03-23T00:17:14;7.30;99.90
4604;DHT22;2314;48.272;11.562;2023-03-23T00:19:41;7.30;99.90
4604;DHT22;2314;48.272;11.562;2023-03-23T00:22:18;7.30;99.90
4604;DHT22;2314;48.272;11.562;2023-03-23T00:24:47;7.30;99.90
4604;DHT22;2314;48.272;11.562;2023-03-23T00:27:15;7.30;99.90
4604;DHT22;2314;48.272;11.562;2023-03-23T00:29:42;7.30;99.90
4604;DHT22;2314;48.272;11.562;2023-03-23T00:32:12;7.30;99.90
4604;DHT22;2314;48.272;11.562;2023-03-23T00:34:40;7.30;99.90
4604;DHT22;2314;48.272;11.562;2023-03-23T00:37:10;7.30;99.90
4604;DHT22;2314;48.272;11.562;2023-03-23T00:39:39;7.30;99.90
4604;DHT22;2314;48.272;11.562;2023-03-23T00:42:12;7.30;99.90
4604;DHT22;2314;48.272;11.562;2023-03-23T00:44:39;7.30;99.90
4604;DHT22;2314;48.272;11.562;2023-03-23T00:47:07;7.30;99.90
4604;DHT22;2314;48.272;11.562;2023-03-23T00:49:35;7.30;99.90
4604;DHT22;2314;48.272;11.562;2023-03-23T00:52:04;7.30;99.90
4604;DHT22;2314;48.272;11.562;2023-03-23T00:54:32;7.30;99.90
4604;DHT22;2314;48.272;11.562;2023-03-23T00:57:01;7.30;99.90
4604;DHT22;2314;48.272;11.562;2023-03-23T00:59:28;7.30;99.90
4604;DHT22;2314;48.272;11.562;2023-03-23T01:01:55;7.30;99.90
4604;DHT22;2314;48.272;11.562;2023-03-23T01:04:22;7.30;99.90
4604;DHT22;2314;48.272;11.562;2023-03-23T01:06:50;7.30;99.90
4604;DHT22;2314;48.272;11.562;2023-03-23T01:09:18;7.30;99.90
4604;DHT22;2314;48.272;11.562;2023-03-23T01:11:48;7.40;99.90
4604;DHT22;2314;48.272;11.562;2023-03-23T01:14:18;7.40;99.90
4604;DHT22;2314;48.272;11.562;2023-03-23T01:16:46;7.50;99.90
4604;DHT22;2314;48.272;11.562;2023-03-23T01:19:13;7.50;99.90
4604;DHT22;2314;48.272;11.562;2023-03-23T01:21:41;7.50;99.90
4604;DHT22;2314;48.272;11.562;2023-03-23T01:24:08;7.50;99.90
4604;DHT22;2314;48.272;11.562;2023-03-23T01:26:35;7.50;99.90
4604;DHT22;2314;48.272;11.562;2023-03-23T01:29:02;7.50;99.90
4604;DHT22;2314;48.272;11.562;2023-03-23T01:31:32;7.40;99.90
4604;DHT22;2314;48.272;11.562;2023-03-23T01:33:59;7.40;99.90
4604;DHT22;2314;48.272;11.562;2023-03-23T01:36:28;7.40;99.90
4604;DHT22;2314;48.272;11.562;2023-03-23T01:38:58;7.40;99.90
4604;DHT22;2314;48.272;11.562;2023-03-23T01:41:28;7.40;99.90
4604;DHT22;2314;48.272;11.562;2023-03-23T01:43:58;7.30;99.90
4604;DHT22;2314;48.272;11.562;2023-03-23T01:46:29;7.40;99.90
4604;DHT22;2314;48.272;11.562;2023-03-23T01:49:03;7.30;99.90
4604;DHT22;2314;48.272;11.562;2023-03-23T01:51:35;7.30;99.90
4604;DHT22;2314;48.272;11.562;2023-03-23T01:54:07;7.30;99.90
4604;DHT22;2314;48.272;11.562;2023-03-23T01:56:42;7.30;99.90
4604;DHT22;2314;48.272;11.562;2023-03-23T01:59:12;7.40;99.90
4604;DHT22;2314;48.272;11.562;2023-03-23T02:01:43;7.40;99.90
4604;DHT22;2314;48.272;11.562;2023-03-23T02:04:12;7.40;99.90
4604;DHT22;2314;48.272;11.562;2023-03-23T02:06:40;7.40;99.90
4604;DHT22;2314;48.272;11.562;2023-03-23T02:09:08;7.30;99.90
4604;DHT22;2314;48.272;11.562;2023-03-23T02:11:35;7.30;99.90
4604;DHT22;2314;48.272;11.562;2023-03-23T02:14:02;7.30;99.90
4604;DHT22;2314;48.272;11.562;2023-03-23T02:16:34;7.40;99.90
4604;DHT22;2314;48.272;11.562;2023-03-23T02:19:19;7.40;99.90
4604;DHT22;2314;48.272;11.562;2023-03-23T02:22:25;7.50;99.90
4604;DHT22;2314;48.272;11.562;2023-03-23T02:25:33;7.50;99.90
4604;DHT22;2314;48.272;11.562;2023-03-23T02:28:35;7.50;99.90
4604;DHT22;2314;48.272;11.562;2023-03-23T02:31:22;7.60;99.90
4604;DHT22;2314;48.272;11.562;2023-03-23T02:34:06;7.60;99.90
4604;DHT22;2314;48.272;11.562;2023-03-23T02:36:39;7.60;99.90
4604;DHT22;2314;48.272;11.562;2023-03-23T02:39:10;7.60;99.90
4604;DHT22;2314;48.272;11.562;2023-03-23T02:41:42;7.70;99.90
4604;DHT22;2314;48.272;11.562;2023-03-23T02:44:12;7.70;99.90
4604;DHT22;2314;48.272;11.562;2023-03-23T02:46:41;7.60;99.90
4604;DHT22;2314;48.272;11.562;2023-03-23T02:49:13;7.60;99.90
4604;DHT22;2314;48.272;11.562;2023-03-23T02:51:44;7.50;99.90
4604;DHT22;2314;48.272;11.562;2023-03-23T02:54:12;7.50;99.90
4604;DHT22;2314;48.272;11.562;2023-03-23T02:56:42;7.50;99.90
4604;DHT22;2314;48.272;11.562;2023-03-23T02:59:10;7.40;99.90
4604;DHT22;2314;48.272;11.562;2023-03-23T03:01:53;7.40;99.90
4604;DHT22;2314;48.272;11.562;2023-03-23T03:04:26;7.40;99.90
4604;DHT22;2314;48.272;11.562;2023-03-23T03:09:49;7.30;99.90
4604;DHT22;2314;48.272;11.562;2023-03-23T03:12:26;7.30;99.90
4604;DHT22;2314;48.272;11.562;2023-03-23T03:15:05;7.20;99.90
4604;DHT22;2314;48.272;11.562;2023-03-23T03:17:40;7.20;99.90
4604;DHT22;2314;48.272;11.562;2023-03-23T03:20:11;7.20;99.90
4604;DHT22;2314;48.272;11.562;2023-03-23T03:22:41;7.20;99.90
4604;DHT22;2314;48.272;11.562;2023-03-23T03:25:11;7.20;99.90
4604;DHT22;2314;48.272;11.562;2023-03-23T03:27:40;7.20;99.90
4604;DHT22;2314;48.272;11.562;2023-03-23T03:30:12;7.30;99.90
4604;DHT22;2314;48.272;11.562;2023-03-23T03:32:45;7.40;99.90
4604;DHT22;2314;48.272;11.562;2023-03-23T03:35:15;7.50;99.90
4604;DHT22;2314;48.272;11.562;2023-03-23T03:37:43;7.60;99.90
4604;DHT22;2314;48.272;11.562;2023-03-23T03:40:14;7.60;99.90
4604;DHT22;2314;48.272;11.562;2023-03-23T03:42:44;7.60;99.90
4604;DHT22;2314;48.272;11.562;2023-03-23T03:45:14;7.50;99.90
4604;DHT22;2314;48.272;11.562;2023-03-23T03:47:43;7.50;99.90
4604;DHT22;2314;48.272;11.562;2023-03-23T03:50:10;7.50;99.90
4604;DHT22;2314;48.272;11.562;2023-03-23T03:52:39;7.50;99.90
4604;DHT22;2314;48.272;11.562;2023-03-23T03:55:08;7.50;99.90
4604;DHT22;2314;48.272;11.562;2023-03-23T03:57:36;7.40;99.90
4604;DHT22;2314;48.272;11.562;2023-03-23T04:00:04;7.40;99.90
4604;DHT22;2314;48.272;11.562;2023-03-23T04:02:40;7.40;99.90
4604;DHT22;2314;48.272;11.562;2023-03-23T04:05:08;7.40;99.90
4604;DHT22;2314;48.272;11.562;2023-03-23T04:07:38;7.40;99.90
4604;DHT22;2314;48.272;11.562;2023-03-23T04:10:07;7.40;99.90
4604;DHT22;2314;48.272;11.562;2023-03-23T04:12:36;7.50;99.90
4604;DHT22;2314;48.272;11.562;2023-03-23T04:15:04;7.60;99.90
4604;DHT22;2314;48.272;11.562;2023-03-23T04:17:33;7.60;99.90
4604;DHT22;2314;48.272;11.562;2023-03-23T04:20:01;7.60;99.90
4604;DHT22;2314;48.272;11.562;2023-03-23T04:22:32;7.60;99.90
4604;DHT22;2314;48.272;11.562;2023-03-23T04:25:01;7.60;99.90
4604;DHT22;2314;48.272;11.562;2023-03-23T04:27:31;7.70;99.90
4604;DHT22;2314;48.272;11.562;2023-03-23T04:29:59;7.70;99.90
4604;DHT22;2314;48.272;11.562;2023-03-23T04:32:28;7.70;99.90
4604;DHT22;2314;48.272;11.562;2023-03-23T04:34:56;7.60;99.90
4604;DHT22;2314;48.272;11.562;2023-03-23T04:37:24;7.70;99.90
4604;DHT22;2314;48.272;11.562;2023-03-23T04:39:54;7.70;99.90
4604;DHT22;2314;48.272;11.562;2023-03-23T04:42:27;7.60;99.90
4604;DHT22;2314;48.272;11.562;2023-03-23T04:44:55;7.70;99.90
4604;DHT22;2314;48.272;11.562;2023-03-23T04:47:23;7.70;99.90
4604;DHT22;2314;48.272;11.562;2023-03-23T04:49:55;7.70;99.90
4604;DHT22;2314;48.272;11.562;2023-03-23T04:52:22;7.70;99.90
4604;DHT22;2314;48.272;11.562;2023-03-23T04:54:50;7.70;99.90
4604;DHT22;2314;48.272;11.562;2023-03-23T04:57:18;7.70;99.90
4604;DHT22;2314;48.272;11.562;2023-03-23T04:59:46;7.70;99.90
4604;DHT22;2314;48.272;11.562;2023-03-23T05:02:14;7.80;99.90
4604;DHT22;2314;48.272;11.562;2023-03-23T05:04:42;7.80;99.90
4604;DHT22;2314;48.272;11.562;2023-03-23T05:07:10;7.90;99.90
4604;DHT22;2314;48.272;11.562;2023-03-23T05:09:38;7.90;99.90
4604;DHT22;2314;48.272;11.562;2023-03-23T05:12:06;7.90;99.90
4604;DHT22;2314;48.272;11.562;2023-03-23T05:14:33;8.00;99.90
4604;DHT22;2314;48.272;11.562;2023-03-23T05:17:02;8.00;99.90
4604;DHT22;2314;48.272;11.562;2023-03-23T05:19:29;8.00;99.90
4604;DHT22;2314;48.272;11.562;2023-03-23T05:21:57;8.10;99.90
4604;DHT22;2314;48.272;11.562;2023-03-23T05:24:29;8.10;99.90
4604;DHT22;2314;48.272;11.562;2023-03-23T05:26:58;8.20;99.90
4604;DHT22;2314;48.272;11.562;2023-03-23T05:29:25;8.20;99.90
4604;DHT22;2314;48.272;11.562;2023-03-23T05:31:55;8.20;99.90
4604;DHT22;2314;48.272;11.562;2023-03-23T05:34:26;8.30;99.90
4604;DHT22;2314;48.272;11.562;2023-03-23T05:36:54;8.40;99.90
4604;DHT22;2314;48.272;11.562;2023-03-23T05:39:23;8.40;99.90
4604;DHT22;2314;48.272;11.562;2023-03-23T05:41:50;8.50;99.90
4604;DHT22;2314;48.272;11.562;2023-03-23T05:44:17;8.50;99.90
4604;DHT22;2314;48.272;11.562;2023-03-23T05:46:44;8.60;99.90
4604;DHT22;2314;48.272;11.562;2023-03-23T05:49:11;8.60;99.90
4604;DHT22;2314;48.272;11.562;2023-03-23T05:51:40;8.80;99.90
4604;DHT22;2314;48.272;11.562;2023-03-23T05:54:07;8.90;99.90
4604;DHT22;2314;48.272;11.562;2023-03-23T05:56:35;9.00;99.90
4604;DHT22;2314;48.272;11.562;2023-03-23T05:59:02;9.10;99.90
4604;DHT22;2314;48.272;11.562;2023-03-23T06:01:30;9.20;99.90
4604;DHT22;2314;48.272;11.562;2023-03-23T06:03:58;9.30;99.90
4604;DHT22;2314;48.272;11.562;2023-03-23T06:06:25;9.50;99.90
4604;DHT22;2314;48.272;11.562;2023-03-23T06:08:55;9.60;99.90
4604;DHT22;2314;48.272;11.562;2023-03-23T06:11:22;9.80;99.90
4604;DHT22;2314;48.272;11.562;2023-03-23T06:13:49;9.90;99.90
4604;DHT22;2314;48.272;11.562;2023-03-23T06:16:17;9.90;99.90
4604;DHT22;2314;48.272;11.562;2023-03-23T06:18:45;10.00;99.90
4604;DHT22;2314;48.272;11.562;2023-03-23T06:21:12;10.10;99.90
4604;DHT22;2314;48.272;11.562;2023-03-23T06:23:39;10.20;99.90
4604;DHT22;2314;48.272;11.562;2023-03-23T06:26:08;10.20;99.90
4604;DHT22;2314;48.272;11.562;2023-03-23T06:28:36;10.40;99.90
4604;DHT22;2314;48.272;11.562;2023-03-23T06:31:05;10.50;99.90
4604;DHT22;2314;48.272;11.562;2023-03-23T06:33:33;10.60;99.90
4604;DHT22;2314;48.272;11.562;2023-03-23T06:36:01;10.50;99.90
4604;DHT22;2314;48.272;11.562;2023-03-23T06:38:28;10.50;99.90
4604;DHT22;2314;48.272;11.562;2023-03-23T06:40:55;10.50;99.90
4604;DHT22;2314;48.272;11.562;2023-03-23T06:43:24;10.60;99.90
4604;DHT22;2314;48.272;11.562;2023-03-23T06:45:51;10.50;99.90
4604;DHT22;2314;48.272;11.562;2023-03-23T06:48:18;10.60;99.90
4604;DHT22;2314;48.272;11.562;2023-03-23T06:50:46;10.70;99.90
4604;DHT22;2314;48.272;11.562;2023-03-23T06:53:13;10.80;99.90
4604;DHT22;2314;48.272;11.562;2023-03-23T06:55:42;11.10;99.90
4604;DHT22;2314;48.272;11.562;2023-03-23T06:58:10;11.20;99.90
4604;DHT22;2314;48.272;11.562;2023-03-23T07:00:39;11.40;99.90
4604;DHT22;2314;48.272;11.562;2023-03-23T07:03:06;11.60;99.90
4604;DHT22;2314;48.272;11.562;2023-03-23T07:05:34;11.70;99.90
4604;DHT22;2314;48.272;11.562;2023-03-23T07:08:01;11.90;99.90
4604;DHT22;2314;48.272;11.562;2023-03-23T07:10:29;12.20;99.90
4604;DHT22;2314;48.272;11.562;2023-03-23T07:12:57;12.50;99.90
4604;DHT22;2314;48.272;11.562;2023-03-23T07:15:24;12.80;99.90
4604;DHT22;2314;48.272;11.562;2023-03-23T07:17:53;13.10;99.90
4604;DHT22;2314;48.272;11.562;2023-03-23T07:20:21;13.40;99.90
4604;DHT22;2314;48.272;11.562;2023-03-23T07:22:48;13.70;99.90
4604;DHT22;2314;48.272;11.562;2023-03-23T07:25:15;14.00;99.90
4604;DHT22;2314;48.272;11.562;2023-03-23T07:27:44;14.30;99.90
4604;DHT22;2314;48.272;11.562;2023-03-23T07:30:12;14.50;99.90
4604;DHT22;2314;48.272;11.562;2023-03-23T07:32:40;14.80;99.90
4604;DHT22;2314;48.272;11.562;2023-03-23T07:35:10;15.10;99.90
4604;DHT22;2314;48.272;11.562;2023-03-23T07:37:37;15.30;99.90
4604;DHT22;2314;48.272;11.562;2023-03-23T07:40:05;15.50;99.90
4604;DHT22;2314;48.272;11.562;2023-03-23T07:42:41;16.10;99.90
4604;DHT22;2314;48.272;11.562;2023-03-23T07:45:10;16.20;99.90
4604;DHT22;2314;48.272;11.562;2023-03-23T07:47:37;16.50;99.90
4604;DHT22;2314;48.272;11.562;2023-03-23T07:50:06;16.30;99.90
4604;DHT22;2314;48.272;11.562;2023-03-23T07:52:35;16.00;99.90
4604;DHT22;2314;48.272;11.562;2023-03-23T07:55:05;15.90;99.90
4604;DHT22;2314;48.272;11.562;2023-03-23T07:57:34;15.80;99.90
4604;DHT22;2314;48.272;11.562;2023-03-23T08:00:01;15.70;99.90
4604;DHT22;2314;48.272;11.562;2023-03-23T08:02:40;15.60;99.90
4604;DHT22;2314;48.272;11.562;2023-03-23T08:05:08;15.60;99.90
4604;DHT22;2314;48.272;11.562;2023-03-23T08:07:36;15.60;99.90
4604;DHT22;2314;48.272;11.562;2023-03-23T08:10:04;15.50;99.90
4604;DHT22;2314;48.272;11.562;2023-03-23T08:12:35;15.50;99.90
4604;DHT22;2314;48.272;11.562;2023-03-23T08:15:02;15.60;99.90
4604;DHT22;2314;48.272;11.562;2023-03-23T08:17:31;15.60;99.90
4604;DHT22;2314;48.272;11.562;2023-03-23T08:19:58;15.70;99.90
4604;DHT22;2314;48.272;11.562;2023-03-23T08:22:25;15.90;99.90
4604;DHT22;2314;48.272;11.562;2023-03-23T08:24:56;15.90;99.90
4604;DHT22;2314;48.272;11.562;2023-03-23T08:27:23;15.90;99.80
4604;DHT22;2314;48.272;11.562;2023-03-23T08:29:50;15.90;99.90
4604;DHT22;2314;48.272;11.562;2023-03-23T08:32:17;16.00;98.50
4604;DHT22;2314;48.272;11.562;2023-03-23T08:34:44;16.20;96.60
4604;DHT22;2314;48.272;11.562;2023-03-23T08:37:11;16.30;99.20
4604;DHT22;2314;48.272;11.562;2023-03-23T08:39:37;16.50;96.90
4604;DHT22;2314;48.272;11.562;2023-03-23T08:42:06;16.70;95.10
4604;DHT22;2314;48.272;11.562;2023-03-23T08:44:33;16.70;95.80
4604;DHT22;2314;48.272;11.562;2023-03-23T08:47:00;16.90;94.50
4604;DHT22;2314;48.272;11.562;2023-03-23T08:49:30;17.00;95.70
4604;DHT22;2314;48.272;11.562;2023-03-23T08:52:00;17.00;94.50
4604;DHT22;2314;48.272;11.562;2023-03-23T08:54:28;17.10;94.60
4604;DHT22;2314;48.272;11.562;2023-03-23T08:56:59;17.10;95.30
4604;DHT22;2314;48.272;11.562;2023-03-23T08:59:28;17.10;96.20
4604;DHT22;2314;48.272;11.562;2023-03-23T09:01:55;17.30;94.40
4604;DHT22;2314;48.272;11.562;2023-03-23T09:04:22;17.60;94.10
4604;DHT22;2314;48.272;11.562;2023-03-23T09:06:49;18.10;94.60
4604;DHT22;2314;48.272;11.562;2023-03-23T09:09:17;18.30;94.70
4604;DHT22;2314;48.272;11.562;2023-03-23T09:11:44;18.60;95.10
4604;DHT22;2314;48.272;11.562;2023-03-23T09:14:11;18.80;91.50
4604;DHT22;2314;48.272;11.562;2023-03-23T09:16:39;19.00;91.00
4604;DHT22;2314;48.272;11.562;2023-03-23T09:19:06;19.50;89.40
4604;DHT22;2314;48.272;11.562;2023-03-23T09:21:35;19.80;88.20
4604;DHT22;2314;48.272;11.562;2023-03-23T09:24:03;20.10;88.10
4604;DHT22;2314;48.272;11.562;2023-03-23T09:26:30;20.20;89.00
4604;DHT22;2314;48.272;11.562;2023-03-23T09:28:58;20.10;89.50
4604;DHT22;2314;48.272;11.562;2023-03-23T09:31:25;20.10;87.30
4604;DHT22;2314;48.272;11.562;2023-03-23T09:33:54;20.00;88.70
4604;DHT22;2314;48.272;11.562;2023-03-23T09:36:22;19.70;86.30
4604;DHT22;2314;48.272;11.562;2023-03-23T09:38:51;19.30;90.30
4604;DHT22;2314;48.272;11.562;2023-03-23T09:41:36;19.20;90.50
4604;DHT22;2314;48.272;11.562;2023-03-23T09:44:20;18.90;91.10
4604;DHT22;2314;48.272;11.562;2023-03-23T09:46:57;19.00;87.00
4604;DHT22;2314;48.272;11.562;2023-03-23T09:49:30;19.20;89.20
4604;DHT22;2314;48.272;11.562;2023-03-23T09:52:02;19.50;90.30
4604;DHT22;2314;48.272;11.562;2023-03-23T09:54:34;19.50;88.90
4604;DHT22;2314;48.272;11.562;2023-03-23T09:57:04;19.50;91.20
4604;DHT22;2314;48.272;11.562;2023-03-23T09:59:40;19.80;91.20
4604;DHT22;2314;48.272;11.562;2023-03-23T10:02:13;19.80;89.70
4604;DHT22;2314;48.272;11.562;2023-03-23T10:04:46;20.10;90.60
4604;DHT22;2314;48.272;11.562;2023-03-23T10:07:18;19.90;89.80
4604;DHT22;2314;48.272;11.562;2023-03-23T10:09:48;19.50;88.80
4604;DHT22;2314;48.272;11.562;2023-03-23T10:12:25;19.50;87.00
4604;DHT22;2314;48.272;11.562;2023-03-23T10:15:14;19.30;90.40
4604;DHT22;2314;48.272;11.562;2023-03-23T10:17:47;19.20;90.60
4604;DHT22;2314;48.272;11.562;2023-03-23T10:20:28;19.10;91.10
4604;DHT22;2314;48.272;11.562;2023-03-23T10:23:05;19.10;90.30
4604;DHT22;2314;48.272;11.562;2023-03-23T10:25:41;18.80;92.20
4604;DHT22;2314;48.272;11.562;2023-03-23T10:28:13;18.50;91.00
4604;DHT22;2314;48.272;11.562;2023-03-23T10:30:48;18.50;91.60
4604;DHT22;2314;48.272;11.562;2023-03-23T10:33:20;18.50;92.20
4604;DHT22;2314;48.272;11.562;2023-03-23T10:35:55;18.40;90.90
4604;DHT22;2314;48.272;11.562;2023-03-23T10:38:28;18.30;90.40
4604;DHT22;2314;48.272;11.562;2023-03-23T10:41:01;18.30;92.30
4604;DHT22;2314;48.272;11.562;2023-03-23T10:43:33;18.10;90.20
4604;DHT22;2314;48.272;11.562;2023-03-23T10:46:02;18.00;92.60
4604;DHT22;2314;48.272;11.562;2023-03-23T10:48:35;18.10;90.80
4604;DHT22;2314;48.272;11.562;2023-03-23T10:51:10;18.10;91.40
4604;DHT22;2314;48.272;11.562;2023-03-23T10:53:43;18.40;92.10
4604;DHT22;2314;48.272;11.562;2023-03-23T10:56:22;18.30;91.20
4604;DHT22;2314;48.272;11.562;2023-03-23T10:58:51;18.50;92.10
4604;DHT22;2314;48.272;11.562;2023-03-23T11:01:20;18.50;91.20
4604;DHT22;2314;48.272;11.562;2023-03-23T11:03:54;18.50;91.20
4604;DHT22;2314;48.272;11.562;2023-03-23T11:06:24;18.60;91.70
4604;DHT22;2314;48.272;11.562;2023-03-23T11:08:55;18.70;91.20
4604;DHT22;2314;48.272;11.562;2023-03-23T11:11:26;18.40;91.10
4604;DHT22;2314;48.272;11.562;2023-03-23T11:13:59;18.10;92.10
4604;DHT22;2314;48.272;11.562;2023-03-23T11:16:29;18.00;92.80
4604;DHT22;2314;48.272;11.562;2023-03-23T11:18:58;18.00;93.20
4604;DHT22;2314;48.272;11.562;2023-03-23T11:21:27;18.10;93.10
4604;DHT22;2314;48.272;11.562;2023-03-23T11:23:57;18.20;93.20
4604;DHT22;2314;48.272;11.562;2023-03-23T11:26:27;18.30;93.10
4604;DHT22;2314;48.272;11.562;2023-03-23T11:28:57;18.40;92.40
4604;DHT22;2314;48.272;11.562;2023-03-23T11:31:33;18.60;92.50
4604;DHT22;2314;48.272;11.562;2023-03-23T11:34:04;19.10;91.60
4604;DHT22;2314;48.272;11.562;2023-03-23T11:36:40;19.10;90.40
4604;DHT22;2314;48.272;11.562;2023-03-23T11:39:24;19.10;91.60
4604;DHT22;2314;48.272;11.562;2023-03-23T11:41:53;19.00;90.90
4604;DHT22;2314;48.272;11.562;2023-03-23T11:44:22;19.10;90.60
4604;DHT22;2314;48.272;11.562;2023-03-23T11:47:00;19.20;87.10
4604;DHT22;2314;48.272;11.562;2023-03-23T11:49:39;19.20;87.60
4604;DHT22;2314;48.272;11.562;2023-03-23T11:52:15;19.10;89.50
4604;DHT22;2314;48.272;11.562;2023-03-23T11:54:50;19.30;88.30
4604;DHT22;2314;48.272;11.562;2023-03-23T11:57:21;19.40;88.50
4604;DHT22;2314;48.272;11.562;2023-03-23T11:59:50;19.40;88.60
4604;DHT22;2314;48.272;11.562;2023-03-23T12:02:35;19.60;87.80
4604;DHT22;2314;48.272;11.562;2023-03-23T12:05:29;19.70;88.10
4604;DHT22;2314;48.272;11.562;2023-03-23T12:08:10;20.10;84.80
4604;DHT22;2314;48.272;11.562;2023-03-23T12:10:50;20.50;84.70
4604;DHT22;2314;48.272;11.562;2023-03-23T12:13:34;20.80;86.10
4604;DHT22;2314;48.272;11.562;2023-03-23T12:16:22;21.20;83.10
4604;DHT22;2314;48.272;11.562;2023-03-23T12:18:58;21.10;82.50
4604;DHT22;2314;48.272;11.562;2023-03-23T12:21:36;20.60;79.70
4604;DHT22;2314;48.272;11.562;2023-03-23T12:24:19;20.20;83.00
4604;DHT22;2314;48.272;11.562;2023-03-23T12:26:56;19.90;82.50
4604;DHT22;2314;48.272;11.562;2023-03-23T12:29:51;19.60;83.40
4604;DHT22;2314;48.272;11.562;2023-03-23T12:32:39;19.60;83.70
4604;DHT22;2314;48.272;11.562;2023-03-23T12:35:25;19.50;85.70
4604;DHT22;2314;48.272;11.562;2023-03-23T12:38:08;19.50;85.80
4604;DHT22;2314;48.272;11.562;2023-03-23T12:41:16;19.30;87.20
4604;DHT22;2314;48.272;11.562;2023-03-23T12:43:50;19.40;89.00
4604;DHT22;2314;48.272;11.562;2023-03-23T12:46:38;19.30;86.60
4604;DHT22;2314;48.272;11.562;2023-03-23T12:49:24;19.30;89.30
4604;DHT22;2314;48.272;11.562;2023-03-23T12:51:59;19.20;88.20
4604;DHT22;2314;48.272;11.562;2023-03-23T12:54:35;19.20;90.60
4604;DHT22;2314;48.272;11.562;2023-03-23T12:57:12;19.10;89.70
4604;DHT22;2314;48.272;11.562;2023-03-23T12:59:48;19.00;89.70
4604;DHT22;2314;48.272;11.562;2023-03-23T13:02:21;19.00;90.40
4604;DHT22;2314;48.272;11.562;2023-03-23T13:04:54;19.10;89.50
4604;DHT22;2314;48.272;11.562;2023-03-23T13:07:28;19.10;90.00
4604;DHT22;2314;48.272;11.562;2023-03-23T13:10:03;19.30;89.10
4604;DHT22;2314;48.272;11.562;2023-03-23T13:12:36;19.30;90.80
4604;DHT22;2314;48.272;11.562;2023-03-23T13:15:15;19.20;88.80
4604;DHT22;2314;48.272;11.562;2023-03-23T13:17:58;19.10;91.00
4604;DHT22;2314;48.272;11.562;2023-03-23T13:20:40;19.10;91.20
4604;DHT22;2314;48.272;11.562;2023-03-23T13:23:16;19.10;91.00
4604;DHT22;2314;48.272;11.562;2023-03-23T13:25:52;19.20;90.30
4604;DHT22;2314;48.272;11.562;2023-03-23T13:28:24;19.10;90.10
4604;DHT22;2314;48.272;11.562;2023-03-23T13:30:56;19.00;89.80
4604;DHT22;2314;48.272;11.562;2023-03-23T13:33:30;18.90;90.20
4604;DHT22;2314;48.272;11.562;2023-03-23T13:36:05;18.90;90.60
4604;DHT22;2314;48.272;11.562;2023-03-23T13:38:35;18.90;90.20
4604;DHT22;2314;48.272;11.562;2023-03-23T13:41:08;18.80;90.40
4604;DHT22;2314;48.272;11.562;2023-03-23T13:43:40;18.70;89.90
4604;DHT22;2314;48.272;11.562;2023-03-23T13:46:13;18.70;89.30
4604;DHT22;2314;48.272;11.562;2023-03-23T13:49:04;18.70;90.30
4604;DHT22;2314;48.272;11.562;2023-03-23T13:51:57;18.80;90.40
4604;DHT22;2314;48.272;11.562;2023-03-23T13:54:31;18.90;91.90
4604;DHT22;2314;48.272;11.562;2023-03-23T13:57:23;18.90;91.80
4604;DHT22;2314;48.272;11.562;2023-03-23T13:59:58;18.70;90.40
4604;DHT22;2314;48.272;11.562;2023-03-23T14:02:37;18.70;90.70
4604;DHT22;2314;48.272;11.562;2023-03-23T14:05:32;18.60;91.00
4604;DHT22;2314;48.272;11.562;2023-03-23T14:08:05;18.40;90.50
4604;DHT22;2314;48.272;11.562;2023-03-23T14:10:41;18.40;90.60
4604;DHT22;2314;48.272;11.562;2023-03-23T14:13:17;18.30;91.70
4604;DHT22;2314;48.272;11.562;2023-03-23T14:15:57;18.40;91.70
4604;DHT22;2314;48.272;11.562;2023-03-23T14:18:30;18.50;89.50
4604;DHT22;2314;48.272;11.562;2023-03-23T14:20:59;18.40;90.50
4604;DHT22;2314;48.272;11.562;2023-03-23T14:23:27;18.40;91.60
4604;DHT22;2314;48.272;11.562;2023-03-23T14:25:55;18.50;91.50
4604;DHT22;2314;48.272;11.562;2023-03-23T14:28:31;18.50;92.70
4604;DHT22;2314;48.272;11.562;2023-03-23T14:31:00;18.50;92.90
4604;DHT22;2314;48.272;11.562;2023-03-23T14:33:27;18.50;92.20
4604;DHT22;2314;48.272;11.562;2023-03-23T14:35:57;18.50;91.70
4604;DHT22;2314;48.272;11.562;2023-03-23T14:38:25;18.60;92.40
4604;DHT22;2314;48.272;11.562;2023-03-23T14:41:00;18.50;92.60
4604;DHT22;2314;48.272;11.562;2023-03-23T14:43:29;18.30;91.90
4604;DHT22;2314;48.272;11.562;2023-03-23T14:46:02;18.10;92.40
4604;DHT22;2314;48.272;11.562;2023-03-23T14:48:32;17.80;91.60
4604;DHT22;2314;48.272;11.562;2023-03-23T14:51:01;17.60;93.10
4604;DHT22;2314;48.272;11.562;2023-03-23T14:53:33;17.50;92.80
4604;DHT22;2314;48.272;11.562;2023-03-23T14:56:04;17.50;93.90
4604;DHT22;2314;48.272;11.562;2023-03-23T14:58:38;17.40;94.90
4604;DHT22;2314;48.272;11.562;2023-03-23T15:01:09;17.30;95.00
4604;DHT22;2314;48.272;11.562;2023-03-23T15:03:39;17.40;94.90
4604;DHT22;2314;48.272;11.562;2023-03-23T15:06:12;17.40;97.30
4604;DHT22;2314;48.272;11.562;2023-03-23T15:08:41;17.50;95.30
4604;DHT22;2314;48.272;11.562;2023-03-23T15:11:12;17.50;95.70
4604;DHT22;2314;48.272;11.562;2023-03-23T15:13:50;17.40;94.50
4604;DHT22;2314;48.272;11.562;2023-03-23T15:16:23;17.40;95.80
4604;DHT22;2314;48.272;11.562;2023-03-23T15:18:53;17.30;95.30
4604;DHT22;2314;48.272;11.562;2023-03-23T15:21:24;17.20;96.80
4604;DHT22;2314;48.272;11.562;2023-03-23T15:23:54;17.20;96.00
4604;DHT22;2314;48.272;11.562;2023-03-23T15:26:26;17.20;95.80
4604;DHT22;2314;48.272;11.562;2023-03-23T15:31:53;17.10;95.70
4604;DHT22;2314;48.272;11.562;2023-03-23T15:34:29;17.00;94.60
4604;DHT22;2314;48.272;11.562;2023-03-23T15:36:59;17.00;95.20
4604;DHT22;2314;48.272;11.562;2023-03-23T15:39:31;17.00;95.70
4604;DHT22;2314;48.272;11.562;2023-03-23T15:41:59;16.90;95.60
4604;DHT22;2314;48.272;11.562;2023-03-23T15:44:29;16.80;96.20
4604;DHT22;2314;48.272;11.562;2023-03-23T15:47:14;16.80;96.30
4604;DHT22;2314;48.272;11.562;2023-03-23T15:49:43;16.70;96.80
4604;DHT22;2314;48.272;11.562;2023-03-23T15:52:13;16.60;96.60
4604;DHT22;2314;48.272;11.562;2023-03-23T15:54:46;16.50;98.80
4604;DHT22;2314;48.272;11.562;2023-03-23T15:57:14;16.40;99.10
4604;DHT22;2314;48.272;11.562;2023-03-23T15:59:41;16.30;98.50
4604;DHT22;2314;48.272;11.562;2023-03-23T16:02:18;16.30;99.70
4604;DHT22;2314;48.272;11.562;2023-03-23T16:04:47;16.20;98.60
4604;DHT22;2314;48.272;11.562;2023-03-23T16:07:22;16.20;99.90
4604;DHT22;2314;48.272;11.562;2023-03-23T16:09:49;16.10;99.90
4604;DHT22;2314;48.272;11.562;2023-03-23T16:12:16;15.90;99.90
4604;DHT22;2314;48.272;11.562;2023-03-23T16:14:43;15.90;99.90
4604;DHT22;2314;48.272;11.562;2023-03-23T16:17:15;15.80;99.90
4604;DHT22;2314;48.272;11.562;2023-03-23T16:19:44;15.70;99.90
4604;DHT22;2314;48.272;11.562;2023-03-23T16:22:11;15.60;99.90
4604;DHT22;2314;48.272;11.562;2023-03-23T16:24:38;15.60;99.90
4604;DHT22;2314;48.272;11.562;2023-03-23T16:27:05;15.50;99.90